Phnom Penh, Cambodia

2:40 PM ICT on January 31, 2015 (GMT +0700)
Pochentong International | Change Station
CLOSE
Current Station
Airport
Location: Phnom Penh,
Elevation: 33 ft
Nearby Weather Stations

Elev 33 ft 11.55 °N, 104.84 °E | Updated 10 minutes ago

Clear
Clear
91 °F
Feels Like 91 °F
N
6
Wind Variable Wind from Variable

Today
High -- | Low -- °F
--% Chance of Precip.
Yesterday
High -- | Low -- °F
Precip. -- in
6:25 AM 6:02 PM
Waxing Gibbous, 88% visible
Pressure 29.86 in
Visibility -9999.0 miles
Clouds
Heat Index 91 °F
Dew Point 61 °F
Humidity 36%
Rainfall 0.00 in
Snow Depth Not available.
UV Not available.
Pollen Not available.
Air Quality Not available.
Flu Activity Not available.
METAR VDPP 310730Z VRB05KT CAVOK 33/16 Q1011

More Conditions Fewer Conditions

Pressure 29.86 in
Visibility -9999.0 miles
Clouds
Heat Index 91 °F
Dew Point 61 °F
Humidity 36%
Rainfall 0.00 in
Snow Depth Not available.
UV Not available.
Pollen Not available.
Air Quality Not available.
Flu Activity Not available.
METAR VDPP 310730Z VRB05KT CAVOK 33/16 Q1011

More Conditions Fewer Conditions

10-Day Weather Forecast

Almanac

Astronomy

Jan. 31, 2015 Rise Set
Actual Time
Civil Twilight
Nautical Twilight
Astronomical Twilight
Moon
Length of Visible Light
Length of Day
Tomorrow will be .
, % of the Moon is Illuminated

Today's Extremes

Country Highs Country Lows

Community

WunderPhotos

Upload Photos

1,792,014 photos uploaded!

WunderBlogs® & News

Nearby

Air Quality

  Air Quality AQ Index Pollutant
Not available.

Snow Depth

Station Depth Elevation

Earthquake Activity

City Distance Mag. Time & Date
Minimum magnitude displayed is 2.5.

Coastal Water Temperatures

Place Temperature

Nearby Weather Stations